createdAt,value
2023-09-25T00:00:53.043Z,99.90
2023-09-25T00:03:32.352Z,99.90
2023-09-25T00:06:08.040Z,99.90
2023-09-25T00:08:46.867Z,99.90
2023-09-25T00:11:23.539Z,99.90
2023-09-25T00:14:04.847Z,99.90
2023-09-25T00:16:50.799Z,99.90
2023-09-25T00:19:30.985Z,99.90
2023-09-25T00:22:09.078Z,99.90
2023-09-25T00:24:44.181Z,99.90
2023-09-25T00:27:20.293Z,99.90
2023-09-25T00:29:57.324Z,99.90
2023-09-25T00:32:35.136Z,99.90
2023-09-25T00:35:16.232Z,99.90
2023-09-25T00:37:51.971Z,99.90
2023-09-25T00:40:28.236Z,99.90
2023-09-25T00:43:06.747Z,99.90
2023-09-25T00:45:47.752Z,99.90
2023-09-25T00:48:33.265Z,99.90
2023-09-25T00:51:13.543Z,99.90
2023-09-25T00:53:50.269Z,99.90
2023-09-25T00:56:26.795Z,99.90
2023-09-25T00:59:04.122Z,99.90
2023-09-25T01:01:44.431Z,99.90
2023-09-25T01:04:21.277Z,99.90
2023-09-25T01:07:02.398Z,99.90
2023-09-25T01:09:43.031Z,99.90
2023-09-25T01:12:23.899Z,99.90
2023-09-25T01:15:06.338Z,99.90
2023-09-25T01:17:48.947Z,99.90
2023-09-25T01:20:25.765Z,99.90
2023-09-25T01:23:05.529Z,99.90
2023-09-25T01:25:41.585Z,99.90
2023-09-25T01:28:19.142Z,99.90
2023-09-25T01:30:58.583Z,99.90
2023-09-25T01:33:35.881Z,99.90
2023-09-25T01:36:15.338Z,99.90
2023-09-25T01:38:54.170Z,99.90
2023-09-25T01:41:31.099Z,99.90
2023-09-25T01:44:20.511Z,99.90
2023-09-25T01:46:57.835Z,99.90
2023-09-25T01:49:34.198Z,99.90
2023-09-25T01:52:10.501Z,99.90
2023-09-25T01:54:50.058Z,99.90
2023-09-25T01:57:26.072Z,99.90
2023-09-25T02:00:03.965Z,99.90
2023-09-25T02:02:40.609Z,99.90
2023-09-25T02:05:17.629Z,99.90
2023-09-25T02:07:55.199Z,99.90
2023-09-25T02:10:35.896Z,99.90
2023-09-25T02:13:15.402Z,99.90
2023-09-25T02:15:51.019Z,99.90
2023-09-25T02:18:29.387Z,99.90
2023-09-25T02:21:05.453Z,99.90
2023-09-25T02:23:42.403Z,99.90
2023-09-25T02:26:32.798Z,99.90
2023-09-25T02:29:08.425Z,99.90
2023-09-25T02:31:45.832Z,99.90
2023-09-25T02:34:24.975Z,99.90
2023-09-25T02:37:00.389Z,99.90
2023-09-25T02:39:36.222Z,99.90
2023-09-25T02:42:16.350Z,99.90
2023-09-25T02:44:55.700Z,99.90
2023-09-25T02:47:32.907Z,99.90
2023-09-25T02:50:21.227Z,99.90
2023-09-25T02:52:57.049Z,99.90
2023-09-25T02:55:36.192Z,99.90
2023-09-25T02:58:17.774Z,99.90
2023-09-25T03:00:53.512Z,99.90
2023-09-25T03:03:39.161Z,99.90
2023-09-25T03:06:15.289Z,99.90
2023-09-25T03:08:54.106Z,99.90
2023-09-25T03:11:30.602Z,99.90
2023-09-25T03:14:09.359Z,99.90
2023-09-25T03:16:47.882Z,99.90
2023-09-25T03:19:24.235Z,99.90
2023-09-25T03:22:00.286Z,99.90
2023-09-25T03:24:38.096Z,99.90
2023-09-25T03:27:17.160Z,99.90
2023-09-25T03:30:06.063Z,99.90
2023-09-25T03:32:42.944Z,99.90
2023-09-25T03:35:19.089Z,99.90
2023-09-25T03:38:03.144Z,99.90
2023-09-25T03:40:42.001Z,99.90
2023-09-25T03:43:19.077Z,99.90
2023-09-25T03:45:58.013Z,99.90
2023-09-25T03:48:37.550Z,99.90
2023-09-25T03:51:18.282Z,99.90
2023-09-25T03:53:55.281Z,99.90
2023-09-25T03:56:33.348Z,99.90
2023-09-25T03:59:10.969Z,99.90
2023-09-25T04:02:07.289Z,99.90
2023-09-25T04:04:57.535Z,99.90
2023-09-25T04:07:45.844Z,99.90
2023-09-25T04:10:21.814Z,99.90
2023-09-25T04:12:59.973Z,99.90
2023-09-25T04:15:36.648Z,99.90
2023-09-25T04:18:16.076Z,99.90
2023-09-25T04:20:55.992Z,99.90
2023-09-25T04:23:31.953Z,99.90
2023-09-25T04:26:07.530Z,99.90
2023-09-25T04:28:43.671Z,99.90
2023-09-25T04:31:22.812Z,99.90
2023-09-25T04:36:54.447Z,99.90
2023-09-25T04:39:34.965Z,99.90
2023-09-25T04:42:12.884Z,99.90
2023-09-25T04:45:03.091Z,99.90
2023-09-25T04:47:39.567Z,99.90
2023-09-25T04:50:31.344Z,99.90
2023-09-25T04:53:09.120Z,99.90
2023-09-25T04:55:52.081Z,99.90
2023-09-25T04:58:30.684Z,99.90
2023-09-25T05:01:06.839Z,99.90
2023-09-25T05:03:52.074Z,99.90
2023-09-25T05:06:36.607Z,99.90
2023-09-25T05:09:14.715Z,99.90
2023-09-25T05:11:56.661Z,99.90
2023-09-25T05:14:35.813Z,99.90
2023-09-25T05:17:12.578Z,99.90
2023-09-25T05:19:54.982Z,99.90
2023-09-25T05:22:47.744Z,99.90
2023-09-25T05:25:25.715Z,99.90
2023-09-25T05:28:05.688Z,99.90
2023-09-25T05:30:41.564Z,99.90
2023-09-25T05:33:19.205Z,99.90
2023-09-25T05:35:57.782Z,99.90
2023-09-25T05:39:06.231Z,99.90
2023-09-25T05:42:04.276Z,99.90
2023-09-25T05:45:00.210Z,99.90
2023-09-25T05:47:37.557Z,99.90
2023-09-25T05:50:36.983Z,99.90
2023-09-25T05:53:21.309Z,99.90
2023-09-25T05:55:58.610Z,99.90
2023-09-25T05:58:41.049Z,99.90
2023-09-25T06:01:22.492Z,99.90
2023-09-25T06:04:02.453Z,99.90
2023-09-25T06:06:42.812Z,99.90
2023-09-25T06:09:19.414Z,99.90
2023-09-25T06:11:59.187Z,99.90
2023-09-25T06:14:38.231Z,99.90
2023-09-25T06:17:14.449Z,99.90
2023-09-25T06:19:51.741Z,99.90
2023-09-25T06:22:35.450Z,99.90
2023-09-25T06:25:14.552Z,99.90
2023-09-25T06:28:17.868Z,99.90
2023-09-25T06:31:26.059Z,99.90
2023-09-25T06:36:43.458Z,99.90
2023-09-25T06:39:18.917Z,99.90
2023-09-25T06:41:54.992Z,99.90
2023-09-25T06:44:34.022Z,99.90
2023-09-25T06:47:11.779Z,99.90
2023-09-25T06:49:48.138Z,99.90
2023-09-25T06:52:30.846Z,99.90
2023-09-25T06:55:13.157Z,99.90
2023-09-25T06:58:06.632Z,99.90
2023-09-25T07:00:57.434Z,99.90
2023-09-25T07:03:37.393Z,99.90
2023-09-25T07:06:15.905Z,99.90
2023-09-25T07:08:52.598Z,99.90
2023-09-25T07:11:32.557Z,99.90
2023-09-25T07:14:09.436Z,99.90
2023-09-25T07:16:51.026Z,99.90
2023-09-25T07:19:56.709Z,99.90
2023-09-25T07:22:40.365Z,99.90
2023-09-25T07:25:18.879Z,99.90
2023-09-25T07:27:55.631Z,99.90
2023-09-25T07:30:46.472Z,99.90
2023-09-25T07:33:26.198Z,99.90
2023-09-25T07:39:01.966Z,99.90
2023-09-25T07:41:37.759Z,99.90
2023-09-25T07:44:36.436Z,99.90
2023-09-25T07:47:15.563Z,99.90
2023-09-25T07:49:55.270Z,99.90
2023-09-25T07:52:35.694Z,99.90
2023-09-25T07:55:15.962Z,99.90
2023-09-25T07:57:53.413Z,99.90
2023-09-25T08:00:39.890Z,99.90
2023-09-25T08:03:18.677Z,99.90
2023-09-25T08:06:15.592Z,99.90
2023-09-25T08:08:51.162Z,99.90
2023-09-25T08:11:27.679Z,99.90
2023-09-25T08:14:03.292Z,99.90
2023-09-25T08:16:42.020Z,99.90
2023-09-25T08:19:31.466Z,99.90
2023-09-25T08:22:13.570Z,99.90
2023-09-25T08:24:49.888Z,99.90
2023-09-25T08:27:26.657Z,99.90
2023-09-25T08:30:05.491Z,99.90
2023-09-25T08:32:46.221Z,99.90
2023-09-25T08:35:25.327Z,99.90
2023-09-25T08:38:10.089Z,99.90
2023-09-25T08:40:55.203Z,99.90
2023-09-25T08:43:39.173Z,99.90
2023-09-25T08:46:15.390Z,99.90
2023-09-25T08:48:59.948Z,99.90
2023-09-25T08:51:38.373Z,99.90
2023-09-25T08:54:17.920Z,99.90
2023-09-25T08:56:58.852Z,99.90
2023-09-25T08:59:37.021Z,99.90
2023-09-25T09:02:16.082Z,99.90
2023-09-25T09:04:51.934Z,99.90
2023-09-25T09:07:27.539Z,99.90
2023-09-25T09:10:12.147Z,99.90
2023-09-25T09:13:03.389Z,99.90
2023-09-25T09:15:48.130Z,99.90
2023-09-25T09:18:36.418Z,99.90
2023-09-25T09:21:17.450Z,99.90
2023-09-25T09:23:56.486Z,99.20
2023-09-25T09:26:35.348Z,99.10
2023-09-25T09:29:22.629Z,99.50
2023-09-25T09:32:02.719Z,98.70
2023-09-25T09:34:48.565Z,98.30
2023-09-25T09:37:27.315Z,98.10
2023-09-25T09:40:04.343Z,98.90
2023-09-25T09:42:46.197Z,98.00
2023-09-25T09:45:22.139Z,97.80
2023-09-25T09:47:59.673Z,97.70
2023-09-25T09:50:54.582Z,97.20
2023-09-25T09:53:31.299Z,96.10
2023-09-25T09:56:07.610Z,95.50
2023-09-25T09:58:47.756Z,96.60
2023-09-25T10:01:24.100Z,96.00
2023-09-25T10:04:01.830Z,95.50
2023-09-25T10:06:50.092Z,96.00
2023-09-25T10:09:37.909Z,94.80
2023-09-25T10:12:14.590Z,94.00
2023-09-25T10:14:56.830Z,94.50
2023-09-25T10:17:46.338Z,95.10
2023-09-25T10:20:39.605Z,93.80
2023-09-25T10:26:23.469Z,93.80
2023-09-25T10:29:22.735Z,96.20
2023-09-25T10:32:08.128Z,96.90
2023-09-25T10:34:54.351Z,94.60
2023-09-25T10:37:36.753Z,94.70
2023-09-25T10:40:16.719Z,94.80
2023-09-25T10:42:52.103Z,93.90
2023-09-25T10:45:30.809Z,94.20
2023-09-25T10:48:09.660Z,93.30
2023-09-25T10:50:47.121Z,93.10
2023-09-25T10:53:24.502Z,92.60
2023-09-25T10:56:11.585Z,91.10
2023-09-25T10:58:52.301Z,91.20
2023-09-25T11:01:45.499Z,90.80
2023-09-25T11:04:26.003Z,91.50
2023-09-25T11:07:03.891Z,90.90
2023-09-25T11:10:15.222Z,90.80
2023-09-25T11:12:51.698Z,89.50
2023-09-25T11:18:18.412Z,89.00
2023-09-25T11:23:50.548Z,89.10
2023-09-25T11:26:32.859Z,87.90
2023-09-25T11:29:12.501Z,87.00
2023-09-25T11:32:02.721Z,86.90
2023-09-25T11:34:42.077Z,87.00
2023-09-25T11:37:33.354Z,86.80
2023-09-25T11:40:32.455Z,86.80
2023-09-25T11:43:07.974Z,86.30
2023-09-25T11:45:45.413Z,84.60
2023-09-25T11:48:21.672Z,84.50
2023-09-25T11:50:59.718Z,84.40
2023-09-25T11:53:46.113Z,84.30
2023-09-25T11:56:27.652Z,85.40
2023-09-25T11:59:04.228Z,84.70
2023-09-25T12:01:52.428Z,84.80
2023-09-25T12:04:40.727Z,85.60
2023-09-25T12:07:30.129Z,84.30
2023-09-25T12:10:09.568Z,85.20
2023-09-25T12:12:47.750Z,85.50
2023-09-25T12:15:33.026Z,86.00
2023-09-25T12:18:12.774Z,85.80
2023-09-25T12:21:20.394Z,87.20
2023-09-25T12:23:59.941Z,88.10
2023-09-25T12:26:40.092Z,89.50
2023-09-25T12:29:16.639Z,90.40
2023-09-25T12:31:51.870Z,90.90
2023-09-25T12:34:27.155Z,91.40
2023-09-25T12:37:02.377Z,91.10
2023-09-25T12:39:39.265Z,91.60
2023-09-25T12:42:22.092Z,91.90
2023-09-25T12:44:58.958Z,92.30
2023-09-25T12:47:43.434Z,92.50
2023-09-25T12:50:24.184Z,93.00
2023-09-25T12:53:05.085Z,93.30
2023-09-25T12:55:41.246Z,93.90
2023-09-25T12:58:20.910Z,94.20
2023-09-25T13:00:57.556Z,94.90
2023-09-25T13:03:39.999Z,95.30
2023-09-25T13:06:16.180Z,95.60
2023-09-25T13:11:48.656Z,96.00
2023-09-25T13:17:19.372Z,96.40
2023-09-25T13:19:58.752Z,96.80
2023-09-25T13:22:53.885Z,97.90
2023-09-25T13:25:54.015Z,98.50
2023-09-25T13:28:30.355Z,98.80
2023-09-25T13:31:35.829Z,98.70
2023-09-25T13:34:15.484Z,98.40
2023-09-25T13:36:52.181Z,98.70
2023-09-25T13:39:27.628Z,98.60
2023-09-25T13:42:09.706Z,99.00
2023-09-25T13:44:50.710Z,99.20
2023-09-25T13:47:36.377Z,99.40
2023-09-25T13:50:15.943Z,99.60
2023-09-25T13:52:53.974Z,99.80
2023-09-25T13:55:37.162Z,99.90
2023-09-25T13:58:39.011Z,99.90
2023-09-25T14:01:19.673Z,99.90
2023-09-25T14:04:45.038Z,99.90
2023-09-25T14:07:22.861Z,99.90
2023-09-25T14:12:54.027Z,99.90
2023-09-25T14:15:32.729Z,99.90
2023-09-25T14:18:10.276Z,99.90
2023-09-25T14:20:53.714Z,99.90
2023-09-25T14:23:29.830Z,99.90
2023-09-25T14:26:51.830Z,99.90
2023-09-25T14:29:30.150Z,99.90
2023-09-25T14:32:08.426Z,99.90
2023-09-25T14:34:44.624Z,99.90
2023-09-25T14:37:24.632Z,99.90
2023-09-25T14:40:02.398Z,99.90
2023-09-25T14:42:51.647Z,99.90
2023-09-25T14:45:27.983Z,99.90
2023-09-25T14:50:54.281Z,99.90
2023-09-25T14:53:38.870Z,99.90
2023-09-25T14:56:16.231Z,99.90
2023-09-25T14:58:55.860Z,99.90
2023-09-25T15:01:31.094Z,99.90
2023-09-25T15:04:06.097Z,99.90
2023-09-25T15:06:42.892Z,99.90
2023-09-25T15:09:24.335Z,99.90
2023-09-25T15:12:02.939Z,99.90
2023-09-25T15:14:42.824Z,99.90
2023-09-25T15:17:29.314Z,99.90
2023-09-25T15:20:11.684Z,99.90
2023-09-25T15:22:51.870Z,99.90
2023-09-25T15:25:38.933Z,99.90
2023-09-25T15:28:18.286Z,99.90
2023-09-25T15:33:48.614Z,99.90
2023-09-25T15:36:38.497Z,99.90
2023-09-25T15:39:25.535Z,99.90
2023-09-25T15:42:05.773Z,99.90
2023-09-25T15:44:56.752Z,99.90
2023-09-25T15:47:36.009Z,99.90
2023-09-25T15:50:12.489Z,99.90
2023-09-25T15:53:05.050Z,99.90
2023-09-25T15:55:40.364Z,99.90
2023-09-25T15:58:22.056Z,99.90
2023-09-25T16:01:01.716Z,99.90
2023-09-25T16:03:43.253Z,99.90
2023-09-25T16:06:41.049Z,99.90
2023-09-25T16:09:37.475Z,99.90
2023-09-25T16:12:13.168Z,99.90
2023-09-25T16:15:05.560Z,99.90
2023-09-25T16:17:45.456Z,99.90
2023-09-25T16:20:20.804Z,99.90
2023-09-25T16:22:57.004Z,99.90
2023-09-25T16:25:51.596Z,99.90
2023-09-25T16:28:45.102Z,99.90
2023-09-25T16:31:25.204Z,99.90
2023-09-25T16:34:24.746Z,99.90
2023-09-25T16:37:24.143Z,99.90
2023-09-25T16:43:00.808Z,99.90
2023-09-25T16:45:53.090Z,99.90
2023-09-25T16:48:34.503Z,99.90
2023-09-25T16:51:10.616Z,99.90
2023-09-25T16:53:51.375Z,99.90
2023-09-25T16:56:27.954Z,99.90
2023-09-25T16:59:03.694Z,99.90
2023-09-25T17:01:41.111Z,99.90
2023-09-25T17:04:22.544Z,99.90
2023-09-25T17:06:58.952Z,99.90
2023-09-25T17:09:34.737Z,99.90
2023-09-25T17:12:12.790Z,99.90
2023-09-25T17:14:48.758Z,99.90
2023-09-25T17:17:28.923Z,99.90
2023-09-25T17:20:08.063Z,99.90
2023-09-25T17:23:03.883Z,99.90
2023-09-25T17:25:39.026Z,99.90
2023-09-25T17:28:21.444Z,99.90
2023-09-25T17:31:08.666Z,99.90
2023-09-25T17:33:44.872Z,99.90
2023-09-25T17:36:24.469Z,99.90
2023-09-25T17:39:01.392Z,99.90
2023-09-25T17:41:37.417Z,99.90
2023-09-25T17:44:13.535Z,99.90
2023-09-25T17:46:52.082Z,99.90
2023-09-25T17:49:27.553Z,99.90
2023-09-25T17:52:21.666Z,99.90
2023-09-25T17:54:58.925Z,99.90
2023-09-25T17:57:34.970Z,99.90
2023-09-25T18:00:15.172Z,99.90
2023-09-25T18:02:51.705Z,99.90
2023-09-25T18:05:38.438Z,99.90
2023-09-25T18:08:19.472Z,99.90
2023-09-25T18:11:06.555Z,99.90
2023-09-25T18:13:43.569Z,99.90
2023-09-25T18:16:23.294Z,99.90
2023-09-25T18:19:08.377Z,99.90
2023-09-25T18:21:45.399Z,99.90
2023-09-25T18:24:25.657Z,99.90
2023-09-25T18:27:01.734Z,99.90
2023-09-25T18:29:38.260Z,99.90
2023-09-25T18:32:15.894Z,99.90
2023-09-25T18:34:52.524Z,99.90
2023-09-25T18:37:28.417Z,99.90
2023-09-25T18:40:11.191Z,99.90
2023-09-25T18:42:47.826Z,99.90
2023-09-25T18:45:23.792Z,99.90
2023-09-25T18:47:58.976Z,99.90
2023-09-25T18:50:34.980Z,99.90
2023-09-25T18:53:11.704Z,99.90
2023-09-25T18:55:56.798Z,99.90
2023-09-25T18:58:31.757Z,99.90
2023-09-25T19:01:07.236Z,99.90
2023-09-25T19:03:43.428Z,99.90
2023-09-25T19:06:25.902Z,99.90
2023-09-25T19:09:01.916Z,99.90
2023-09-25T19:11:41.985Z,99.90
2023-09-25T19:14:19.722Z,99.90
2023-09-25T19:16:55.769Z,99.90
2023-09-25T19:19:32.800Z,99.90
2023-09-25T19:22:08.900Z,99.90
2023-09-25T19:24:44.438Z,99.90
2023-09-25T19:27:24.606Z,99.90
2023-09-25T19:30:00.575Z,99.90
2023-09-25T19:32:36.520Z,99.90
2023-09-25T19:35:14.613Z,99.90
2023-09-25T19:37:50.205Z,99.90
2023-09-25T19:40:26.370Z,99.90
2023-09-25T19:43:06.772Z,99.90
2023-09-25T19:45:42.728Z,99.90
2023-09-25T19:48:18.857Z,99.90
2023-09-25T19:50:55.168Z,99.90
2023-09-25T19:53:31.403Z,99.90
2023-09-25T19:56:08.031Z,99.90
2023-09-25T19:58:46.306Z,99.90
2023-09-25T20:01:22.789Z,99.90
2023-09-25T20:03:59.243Z,99.90
2023-09-25T20:06:34.966Z,99.90
2023-09-25T20:09:12.039Z,99.90
2023-09-25T20:11:54.242Z,99.90
2023-09-25T20:14:33.058Z,99.90
2023-09-25T20:17:14.466Z,99.90
2023-09-25T20:19:53.757Z,99.90
2023-09-25T20:22:29.838Z,99.90
2023-09-25T20:25:06.232Z,99.90
2023-09-25T20:27:44.277Z,99.90
2023-09-25T20:30:26.646Z,99.90
2023-09-25T20:33:02.062Z,99.90
2023-09-25T20:35:37.962Z,99.90
2023-09-25T20:38:13.698Z,99.90
2023-09-25T20:40:49.051Z,99.90
2023-09-25T20:43:26.797Z,99.90
2023-09-25T20:46:06.374Z,99.90
2023-09-25T20:48:42.786Z,99.90
2023-09-25T20:51:18.349Z,99.90
2023-09-25T20:53:54.325Z,99.90
2023-09-25T20:56:30.155Z,99.90
2023-09-25T20:59:06.602Z,99.90
2023-09-25T21:01:44.903Z,99.90
2023-09-25T21:04:20.592Z,99.90
2023-09-25T21:07:00.023Z,99.90
2023-09-25T21:09:37.389Z,99.90
2023-09-25T21:12:14.256Z,99.90
2023-09-25T21:14:50.017Z,99.90
2023-09-25T21:17:30.200Z,99.90
2023-09-25T21:20:05.951Z,99.90
2023-09-25T21:22:43.256Z,99.90
2023-09-25T21:25:19.501Z,99.90
2023-09-25T21:27:55.696Z,99.90
2023-09-25T21:30:34.813Z,99.90
2023-09-25T21:33:15.153Z,99.90
2023-09-25T21:35:52.272Z,99.90
2023-09-25T21:38:27.593Z,99.90
2023-09-25T21:41:03.109Z,99.90
2023-09-25T21:43:39.346Z,99.90
2023-09-25T21:46:15.933Z,99.90
2023-09-25T21:48:55.201Z,99.90
2023-09-25T21:51:31.566Z,99.90
2023-09-25T21:54:10.117Z,99.90
2023-09-25T21:56:45.633Z,99.90
2023-09-25T21:59:33.562Z,99.90
2023-09-25T22:02:19.404Z,99.90
2023-09-25T22:04:59.051Z,99.90
2023-09-25T22:07:34.256Z,99.90
2023-09-25T22:10:13.637Z,99.90
2023-09-25T22:12:49.528Z,99.90
2023-09-25T22:15:25.455Z,99.90
2023-09-25T22:18:01.651Z,99.90
2023-09-25T22:20:44.063Z,99.90
2023-09-25T22:23:19.821Z,99.90
2023-09-25T22:25:56.142Z,99.90
2023-09-25T22:28:32.592Z,99.90
2023-09-25T22:31:13.100Z,99.90
2023-09-25T22:33:58.880Z,99.90
2023-09-25T22:36:41.325Z,99.90
2023-09-25T22:39:18.248Z,99.90
2023-09-25T22:41:54.628Z,99.90
2023-09-25T22:44:38.488Z,99.90
2023-09-25T22:47:14.348Z,99.90
2023-09-25T22:49:58.349Z,99.90
2023-09-25T22:52:37.571Z,99.90
2023-09-25T22:55:15.369Z,99.90
2023-09-25T22:57:55.711Z,99.90
2023-09-25T23:00:33.197Z,99.90
2023-09-25T23:03:10.667Z,99.90
2023-09-25T23:05:58.181Z,99.90
2023-09-25T23:08:37.972Z,99.90
2023-09-25T23:11:14.125Z,99.90
2023-09-25T23:14:03.903Z,99.90
2023-09-25T23:16:42.516Z,99.90
2023-09-25T23:19:19.819Z,99.90
2023-09-25T23:22:02.180Z,99.90
2023-09-25T23:24:43.086Z,99.90
2023-09-25T23:27:19.750Z,99.90
2023-09-25T23:29:56.634Z,99.90
2023-09-25T23:35:23.127Z,99.90
2023-09-25T23:38:00.789Z,99.90
2023-09-25T23:40:43.451Z,99.90
2023-09-25T23:43:20.593Z,99.90
2023-09-25T23:46:02.829Z,99.90
2023-09-25T23:48:40.281Z,99.90
2023-09-25T23:54:08.483Z,99.90
2023-09-25T23:56:55.825Z,99.90
2023-09-25T23:59:34.024Z,99.90
